createdAt,value
2022-12-17T00:01:57.267Z,1.89
2022-12-17T00:04:42.179Z,1.88
2022-12-17T00:07:27.010Z,1.85
2022-12-17T00:10:12.075Z,1.84
2022-12-17T00:12:57.091Z,1.82
2022-12-17T00:15:43.366Z,1.80
2022-12-17T00:18:28.567Z,1.78
2022-12-17T00:21:15.586Z,1.77
2022-12-17T00:24:01.651Z,1.75
2022-12-17T00:26:46.664Z,1.73
2022-12-17T00:29:32.103Z,1.72
2022-12-17T00:32:17.506Z,1.70
2022-12-17T00:35:02.756Z,1.67
2022-12-17T00:37:48.683Z,1.67
2022-12-17T00:40:34.292Z,1.65
2022-12-17T00:43:19.486Z,1.65
2022-12-17T00:46:05.516Z,1.64
2022-12-17T00:48:51.026Z,1.63
2022-12-17T00:51:37.202Z,1.61
2022-12-17T00:54:22.583Z,1.61
2022-12-17T00:57:07.653Z,1.60
2022-12-17T00:59:52.731Z,1.57
2022-12-17T01:02:38.651Z,1.56
2022-12-17T01:05:24.424Z,1.54
2022-12-17T01:08:09.952Z,1.54
2022-12-17T01:10:55.567Z,1.53
2022-12-17T01:13:42.060Z,1.52
2022-12-17T01:16:30.343Z,1.51
2022-12-17T01:19:16.368Z,1.50
2022-12-17T01:22:04.104Z,1.48
2022-12-17T01:24:49.202Z,1.48
2022-12-17T01:27:37.718Z,1.48
2022-12-17T01:30:23.299Z,1.47
2022-12-17T01:33:08.499Z,1.46
2022-12-17T01:35:53.447Z,1.47
2022-12-17T01:38:38.808Z,1.45
2022-12-17T01:41:24.558Z,1.44
2022-12-17T01:44:09.425Z,1.43
2022-12-17T01:46:58.640Z,1.43
2022-12-17T01:49:45.669Z,1.42
2022-12-17T01:52:34.810Z,1.40
2022-12-17T01:55:22.621Z,1.39
2022-12-17T01:58:08.048Z,1.41
2022-12-17T02:00:53.435Z,1.41
2022-12-17T02:03:38.862Z,1.39
2022-12-17T02:06:44.723Z,1.37
2022-12-17T02:09:35.441Z,1.37
2022-12-17T02:12:31.538Z,1.38
2022-12-17T02:15:23.320Z,1.37
2022-12-17T02:18:14.166Z,1.39
2022-12-17T02:20:59.587Z,1.40
2022-12-17T02:23:44.736Z,1.39
2022-12-17T02:27:06.822Z,1.41
2022-12-17T02:30:00.755Z,1.43
2022-12-17T02:32:47.545Z,1.43
2022-12-17T02:35:36.753Z,1.44
2022-12-17T02:38:45.858Z,1.43
2022-12-17T02:41:48.238Z,1.42
2022-12-17T02:44:36.569Z,1.41
2022-12-17T02:47:26.542Z,1.41
2022-12-17T02:50:12.488Z,1.41
2022-12-17T02:53:03.936Z,1.41
2022-12-17T02:55:49.657Z,1.39
2022-12-17T02:58:34.537Z,1.38
2022-12-17T03:01:20.011Z,1.38
2022-12-17T03:04:05.410Z,1.32
2022-12-17T03:06:51.184Z,1.29
2022-12-17T03:09:36.456Z,1.28
2022-12-17T03:12:21.893Z,1.22
2022-12-17T03:15:07.007Z,1.21
2022-12-17T03:17:51.891Z,1.21
2022-12-17T03:20:37.408Z,1.20
2022-12-17T03:23:25.293Z,1.19
2022-12-17T03:26:10.392Z,1.19
2022-12-17T03:28:55.808Z,1.20
2022-12-17T03:31:41.131Z,1.18
2022-12-17T03:34:26.238Z,1.19
2022-12-17T03:37:11.666Z,1.18
2022-12-17T03:39:56.656Z,1.19
2022-12-17T03:42:42.021Z,1.19
2022-12-17T03:45:27.300Z,1.19
2022-12-17T03:48:31.977Z,1.19
2022-12-17T03:51:18.017Z,1.17
2022-12-17T03:54:03.912Z,1.15
2022-12-17T03:56:49.636Z,1.16
2022-12-17T03:59:35.077Z,1.15
2022-12-17T04:02:20.360Z,1.14
2022-12-17T04:05:05.423Z,1.12
2022-12-17T04:07:50.352Z,1.09
2022-12-17T04:10:35.856Z,1.05
2022-12-17T04:13:20.907Z,1.07
2022-12-17T04:16:06.551Z,1.07
2022-12-17T04:18:51.757Z,1.07
2022-12-17T04:21:36.930Z,1.08
2022-12-17T04:24:22.660Z,1.07
2022-12-17T04:27:07.793Z,1.08
2022-12-17T04:29:52.790Z,1.06
2022-12-17T04:32:38.128Z,1.04
2022-12-17T04:35:23.407Z,1.05
2022-12-17T04:38:08.955Z,1.03
2022-12-17T04:40:53.863Z,1.02
2022-12-17T04:43:39.102Z,1.00
2022-12-17T04:46:24.320Z,0.96
2022-12-17T04:49:09.348Z,0.95
2022-12-17T04:51:54.210Z,0.92
2022-12-17T04:54:39.317Z,0.88
2022-12-17T04:57:24.481Z,0.88
2022-12-17T05:00:09.334Z,0.87
2022-12-17T05:02:54.426Z,0.84
2022-12-17T05:05:39.882Z,0.86
2022-12-17T05:08:24.865Z,0.86
2022-12-17T05:11:10.249Z,0.84
2022-12-17T05:13:55.262Z,0.84
2022-12-17T05:16:40.580Z,0.85
2022-12-17T05:19:25.981Z,0.85
2022-12-17T05:22:10.921Z,0.86
2022-12-17T05:24:56.093Z,0.84
2022-12-17T05:27:41.313Z,0.83
2022-12-17T05:30:27.188Z,0.84
2022-12-17T05:33:20.143Z,0.82
2022-12-17T05:36:05.382Z,0.84
2022-12-17T05:38:50.552Z,0.82
2022-12-17T05:41:40.147Z,0.82
2022-12-17T05:44:24.939Z,0.81
2022-12-17T05:47:10.355Z,0.80
2022-12-17T05:49:56.531Z,0.76
2022-12-17T05:52:41.673Z,0.75
2022-12-17T05:55:27.341Z,0.74
2022-12-17T05:58:28.147Z,0.72
2022-12-17T06:01:19.420Z,0.73
2022-12-17T06:04:05.469Z,0.71
2022-12-17T06:06:50.987Z,0.71
2022-12-17T06:09:36.107Z,0.70
2022-12-17T06:12:21.442Z,0.70
2022-12-17T06:15:06.922Z,0.69
2022-12-17T06:18:16.434Z,0.68
2022-12-17T06:21:02.012Z,0.64
2022-12-17T06:23:47.079Z,0.63
2022-12-17T06:26:31.966Z,0.62
2022-12-17T06:29:16.815Z,0.62
2022-12-17T06:32:01.789Z,0.60
2022-12-17T06:34:47.455Z,0.60
2022-12-17T06:37:32.520Z,0.58
2022-12-17T06:40:17.687Z,0.58
2022-12-17T06:43:12.114Z,0.58
2022-12-17T06:45:57.459Z,0.59
2022-12-17T06:48:42.448Z,0.58
2022-12-17T06:51:27.651Z,0.56
2022-12-17T06:54:13.109Z,0.54
2022-12-17T06:56:58.413Z,0.55
2022-12-17T06:59:43.459Z,0.55
2022-12-17T07:02:31.602Z,0.57
2022-12-17T07:05:16.993Z,0.55
2022-12-17T07:08:02.100Z,0.57
2022-12-17T07:10:47.195Z,0.58
2022-12-17T07:13:32.266Z,0.59
2022-12-17T07:16:17.849Z,0.62
2022-12-17T07:19:03.588Z,0.65
2022-12-17T07:21:48.411Z,0.64
2022-12-17T07:24:33.384Z,0.66
2022-12-17T07:27:18.818Z,0.69
2022-12-17T07:30:04.026Z,0.70
2022-12-17T07:32:49.090Z,0.71
2022-12-17T07:35:34.423Z,0.74
2022-12-17T07:38:22.123Z,0.79
2022-12-17T07:41:07.035Z,0.79
2022-12-17T07:43:53.398Z,0.77
2022-12-17T07:46:38.761Z,0.77
2022-12-17T07:49:25.871Z,0.80
2022-12-17T07:52:12.053Z,0.82
2022-12-17T07:54:57.108Z,0.82
2022-12-17T07:57:42.537Z,0.87
2022-12-17T08:00:27.872Z,0.91
2022-12-17T08:03:20.257Z,0.91
2022-12-17T08:06:05.665Z,0.95
2022-12-17T08:08:50.564Z,1.00
2022-12-17T08:11:35.815Z,1.02
2022-12-17T08:14:20.780Z,1.08
2022-12-17T08:17:06.046Z,1.05
2022-12-17T08:19:51.610Z,1.06
2022-12-17T08:22:37.005Z,1.06
2022-12-17T08:25:22.129Z,1.08
2022-12-17T08:28:11.220Z,1.08
2022-12-17T08:31:04.613Z,1.09
2022-12-17T08:33:49.817Z,1.09
2022-12-17T08:36:34.884Z,1.11
2022-12-17T08:39:20.342Z,1.13
2022-12-17T08:42:05.248Z,1.13
2022-12-17T08:44:50.330Z,1.14
2022-12-17T08:47:35.847Z,1.13
2022-12-17T08:50:21.678Z,1.09
2022-12-17T08:53:07.224Z,1.11
2022-12-17T08:55:52.186Z,1.10
2022-12-17T08:58:37.375Z,1.08
2022-12-17T09:01:30.435Z,1.12
2022-12-17T09:04:15.622Z,1.12
2022-12-17T09:07:00.755Z,1.12
2022-12-17T09:09:46.217Z,1.17
2022-12-17T09:12:31.065Z,1.18
2022-12-17T09:15:15.815Z,1.21
2022-12-17T09:18:00.681Z,1.26
2022-12-17T09:20:46.109Z,1.29
2022-12-17T09:23:35.598Z,1.31
2022-12-17T09:26:21.118Z,1.34
2022-12-17T09:29:06.135Z,1.38
2022-12-17T09:31:52.038Z,1.39
2022-12-17T09:34:37.763Z,1.39
2022-12-17T09:37:23.571Z,1.41
2022-12-17T09:40:08.843Z,1.39
2022-12-17T09:43:08.063Z,1.42
2022-12-17T09:46:04.973Z,1.41
2022-12-17T09:49:01.694Z,1.43
2022-12-17T09:51:48.149Z,1.44
2022-12-17T09:54:56.309Z,1.47
2022-12-17T09:57:50.306Z,1.47
2022-12-17T10:00:41.934Z,1.47
2022-12-17T10:03:36.680Z,1.48
2022-12-17T10:06:29.762Z,1.47
2022-12-17T10:09:18.124Z,1.45
2022-12-17T10:12:03.188Z,1.45
2022-12-17T10:14:49.126Z,1.42
2022-12-17T10:17:42.254Z,1.43
2022-12-17T10:21:05.993Z,1.43
2022-12-17T10:23:52.484Z,1.40
2022-12-17T10:26:44.455Z,1.40
2022-12-17T10:29:36.233Z,1.37
2022-12-17T10:32:33.351Z,1.35
2022-12-17T10:35:25.953Z,1.36
2022-12-17T10:38:11.612Z,1.38
2022-12-17T10:40:56.583Z,1.38
2022-12-17T10:43:46.389Z,1.38
2022-12-17T10:46:41.849Z,1.40
2022-12-17T10:49:31.406Z,1.36
2022-12-17T10:52:47.269Z,1.35
2022-12-17T10:55:47.183Z,1.35
2022-12-17T10:58:38.574Z,1.33
2022-12-17T11:01:25.601Z,1.34
2022-12-17T11:04:13.256Z,1.33
2022-12-17T11:07:03.712Z,1.30
2022-12-17T11:09:57.179Z,1.30
2022-12-17T11:12:51.260Z,1.29
2022-12-17T11:15:39.303Z,1.30
2022-12-17T11:18:29.944Z,1.26
2022-12-17T11:21:33.956Z,1.21
2022-12-17T11:24:22.884Z,1.20
2022-12-17T11:27:12.367Z,1.21
2022-12-17T11:29:57.490Z,1.20
2022-12-17T11:33:00.852Z,1.19
2022-12-17T11:36:04.687Z,1.16
2022-12-17T11:38:52.842Z,1.12
2022-12-17T11:42:11.283Z,1.12
2022-12-17T11:45:09.156Z,1.07
2022-12-17T11:48:19.592Z,1.06
2022-12-17T11:51:19.568Z,1.06
2022-12-17T11:54:26.562Z,1.06
2022-12-17T11:57:17.663Z,1.04
2022-12-17T12:00:21.320Z,1.07
2022-12-17T12:03:22.963Z,1.06
2022-12-17T12:06:13.889Z,1.06
2022-12-17T12:09:48.486Z,1.06
2022-12-17T12:12:33.656Z,1.05
2022-12-17T12:15:43.062Z,1.05
2022-12-17T12:18:41.135Z,1.04
2022-12-17T12:21:44.867Z,1.01
2022-12-17T12:24:44.613Z,0.99
2022-12-17T12:27:53.110Z,0.99
2022-12-17T12:30:43.501Z,1.00
2022-12-17T12:33:34.504Z,0.99
2022-12-17T12:36:22.486Z,1.00
2022-12-17T12:39:12.650Z,0.98
2022-12-17T12:42:07.233Z,0.96
2022-12-17T12:45:33.672Z,0.95
2022-12-17T12:48:30.304Z,0.99
2022-12-17T12:51:34.246Z,0.99
2022-12-17T12:54:21.412Z,0.97
2022-12-17T12:57:06.483Z,0.96
2022-12-17T12:59:56.016Z,0.98
2022-12-17T13:02:43.832Z,0.96
2022-12-17T13:05:34.865Z,0.96
2022-12-17T13:08:04.486Z,0.94
2022-12-17T13:10:32.779Z,0.92
2022-12-17T13:13:12.375Z,0.95
2022-12-17T13:15:45.045Z,0.93
2022-12-17T13:18:17.625Z,0.94
2022-12-17T13:20:44.265Z,0.94
2022-12-17T13:23:28.304Z,0.95
2022-12-17T13:26:39.945Z,0.94
2022-12-17T13:29:12.606Z,0.94
2022-12-17T13:32:20.798Z,0.94
2022-12-17T13:34:59.299Z,0.94
2022-12-17T13:37:54.904Z,0.95
2022-12-17T13:40:58.554Z,0.96
2022-12-17T13:43:30.919Z,0.94
2022-12-17T13:45:57.619Z,0.96
2022-12-17T13:48:27.401Z,0.99
2022-12-17T13:51:01.913Z,0.97
2022-12-17T13:53:30.273Z,0.95
2022-12-17T13:55:58.532Z,0.96
2022-12-17T13:58:34.577Z,0.96
2022-12-17T14:01:12.000Z,0.96
2022-12-17T14:06:28.914Z,0.96
2022-12-17T14:08:57.374Z,0.93
2022-12-17T14:11:43.281Z,0.95
2022-12-17T14:14:27.038Z,0.94
2022-12-17T14:16:55.165Z,0.94
2022-12-17T14:19:23.405Z,0.94
2022-12-17T14:21:50.674Z,0.93
2022-12-17T14:24:23.495Z,0.90
2022-12-17T14:26:52.125Z,0.89
2022-12-17T14:29:27.813Z,0.88
2022-12-17T14:32:00.386Z,0.87
2022-12-17T14:34:27.572Z,0.85
2022-12-17T14:36:57.751Z,0.81
2022-12-17T14:39:33.433Z,0.84
2022-12-17T14:42:27.057Z,0.82
2022-12-17T14:44:58.313Z,0.84
2022-12-17T14:47:28.491Z,0.86
2022-12-17T14:50:01.046Z,0.85
2022-12-17T14:52:38.782Z,0.88
2022-12-17T14:55:27.041Z,0.87
2022-12-17T14:58:06.053Z,0.88
2022-12-17T15:00:32.766Z,0.87
2022-12-17T15:02:59.589Z,0.88
2022-12-17T15:05:26.370Z,0.91
2022-12-17T15:07:53.161Z,0.90
2022-12-17T15:10:20.815Z,0.93
2022-12-17T15:12:48.954Z,0.92
2022-12-17T15:15:16.698Z,0.93
2022-12-17T15:17:43.797Z,0.94
2022-12-17T15:20:17.869Z,0.92
2022-12-17T15:22:45.012Z,0.95
2022-12-17T15:25:17.573Z,0.98
2022-12-17T15:27:44.316Z,0.99
2022-12-17T15:30:16.034Z,1.00
2022-12-17T15:32:42.678Z,1.00
2022-12-17T15:35:11.269Z,1.02
2022-12-17T15:37:38.051Z,1.04
2022-12-17T15:40:06.311Z,1.04
2022-12-17T15:42:51.613Z,1.06
2022-12-17T15:45:18.446Z,1.07
2022-12-17T15:47:45.029Z,1.08
2022-12-17T15:50:11.672Z,1.09
2022-12-17T15:52:38.347Z,1.11
2022-12-17T15:55:05.318Z,1.13
2022-12-17T15:57:31.907Z,1.13
2022-12-17T15:59:58.498Z,1.14
2022-12-17T16:02:25.320Z,1.14
2022-12-17T16:04:52.794Z,1.16
2022-12-17T16:07:22.435Z,1.17
2022-12-17T16:09:49.055Z,1.17
2022-12-17T16:12:15.663Z,1.18
2022-12-17T16:14:42.296Z,1.19
2022-12-17T16:17:09.107Z,1.18
2022-12-17T16:19:35.744Z,1.20
2022-12-17T16:22:02.345Z,1.21
2022-12-17T16:24:29.021Z,1.22
2022-12-17T16:26:59.420Z,1.23
2022-12-17T16:29:29.323Z,1.24
2022-12-17T16:31:55.976Z,1.25
2022-12-17T16:34:22.532Z,1.25
2022-12-17T16:36:49.290Z,1.24
2022-12-17T16:39:17.756Z,1.26
2022-12-17T16:41:45.251Z,1.27
2022-12-17T16:44:12.175Z,1.28
2022-12-17T16:46:41.402Z,1.28
2022-12-17T16:49:18.123Z,1.30
2022-12-17T16:51:46.167Z,1.29
2022-12-17T16:54:15.328Z,1.28
2022-12-17T16:56:43.440Z,1.26
2022-12-17T16:59:11.857Z,1.26
2022-12-17T17:01:40.140Z,1.25
2022-12-17T17:04:08.836Z,1.25
2022-12-17T17:06:56.302Z,1.24
2022-12-17T17:09:24.506Z,1.24
2022-12-17T17:11:52.375Z,1.23
2022-12-17T17:14:20.240Z,1.23
2022-12-17T17:16:46.914Z,1.21
2022-12-17T17:19:13.726Z,1.23
2022-12-17T17:21:50.729Z,1.21
2022-12-17T17:24:21.725Z,1.19
2022-12-17T17:26:49.778Z,1.19
2022-12-17T17:29:16.750Z,1.16
2022-12-17T17:34:31.635Z,1.13
2022-12-17T17:36:58.259Z,1.10
2022-12-17T17:39:24.900Z,1.07
2022-12-17T17:41:52.142Z,1.06
2022-12-17T17:44:18.907Z,1.04
2022-12-17T17:46:45.650Z,1.03
2022-12-17T17:49:12.705Z,1.01
2022-12-17T17:54:28.821Z,0.95
2022-12-17T17:56:55.962Z,0.93
2022-12-17T17:59:30.961Z,0.91
2022-12-17T18:02:00.019Z,0.87
2022-12-17T18:04:26.735Z,0.84
2022-12-17T18:07:26.080Z,0.82
2022-12-17T18:09:45.347Z,0.80
2022-12-17T18:12:30.814Z,0.76
2022-12-17T18:15:13.866Z,0.74
2022-12-17T18:17:42.160Z,0.70
2022-12-17T18:20:09.854Z,0.68
2022-12-17T18:22:39.877Z,0.63
2022-12-17T18:25:08.358Z,0.59
2022-12-17T18:27:34.938Z,0.57
2022-12-17T18:30:03.980Z,0.55
2022-12-17T18:32:30.537Z,0.53
2022-12-17T18:34:57.308Z,0.53
2022-12-17T18:37:23.885Z,0.50
2022-12-17T18:39:50.980Z,0.47
2022-12-17T18:42:36.255Z,0.45
2022-12-17T18:45:03.468Z,0.44
2022-12-17T18:47:30.146Z,0.42
2022-12-17T18:49:57.386Z,0.41
2022-12-17T18:52:25.933Z,0.38
2022-12-17T18:54:52.618Z,0.35
2022-12-17T18:57:19.360Z,0.36
2022-12-17T18:59:46.076Z,0.36
2022-12-17T19:02:13.726Z,0.35
2022-12-17T19:04:43.163Z,0.35
2022-12-17T19:07:13.207Z,0.34
2022-12-17T19:09:40.585Z,0.33
2022-12-17T19:12:09.389Z,0.32
2022-12-17T19:14:36.945Z,0.30
2022-12-17T19:17:03.781Z,0.30
2022-12-17T19:19:30.326Z,0.30
2022-12-17T19:21:59.753Z,0.30
2022-12-17T19:24:26.826Z,0.28
2022-12-17T19:26:53.789Z,0.25
2022-12-17T19:29:20.630Z,0.24
2022-12-17T19:31:48.171Z,0.21
2022-12-17T19:34:16.662Z,0.19
2022-12-17T19:36:46.799Z,0.16
2022-12-17T19:39:25.066Z,0.14
2022-12-17T19:41:51.799Z,0.13
2022-12-17T19:44:22.062Z,0.11
2022-12-17T19:46:48.987Z,0.10
2022-12-17T19:49:16.777Z,0.09
2022-12-17T19:51:44.714Z,0.08
2022-12-17T19:54:17.106Z,0.08
2022-12-17T19:56:45.234Z,0.06
2022-12-17T19:59:14.479Z,0.04
2022-12-17T20:01:45.924Z,0.05
2022-12-17T20:04:15.998Z,0.04
2022-12-17T20:06:44.326Z,0.04
2022-12-17T20:09:17.585Z,0.04
2022-12-17T20:11:44.138Z,0.02
2022-12-17T20:14:27.226Z,0.01
2022-12-17T20:16:58.815Z,0.00
2022-12-17T20:19:31.058Z,-0.02
2022-12-17T20:21:59.555Z,-0.04
2022-12-17T20:24:31.122Z,-0.05
2022-12-17T20:26:59.725Z,-0.07
2022-12-17T20:29:31.850Z,-0.08
2022-12-17T20:32:03.332Z,-0.09
2022-12-17T20:34:30.038Z,-0.13
2022-12-17T20:36:58.961Z,-0.14
2022-12-17T20:39:28.197Z,-0.18
2022-12-17T20:41:56.017Z,-0.19
2022-12-17T20:44:22.850Z,-0.23
2022-12-17T20:46:50.326Z,-0.26
2022-12-17T20:49:16.958Z,-0.29
2022-12-17T20:51:43.651Z,-0.30
2022-12-17T20:54:11.570Z,-0.31
2022-12-17T20:56:40.049Z,-0.36
2022-12-17T20:59:09.285Z,-0.37
2022-12-17T21:01:37.732Z,-0.40
2022-12-17T21:04:07.629Z,-0.42
2022-12-17T21:06:43.493Z,-0.45
2022-12-17T21:09:10.845Z,-0.48
2022-12-17T21:11:39.669Z,-0.55
2022-12-17T21:14:08.850Z,-0.59
2022-12-17T21:16:39.570Z,-0.64
2022-12-17T21:19:08.361Z,-0.68
2022-12-17T21:21:39.110Z,-0.69
2022-12-17T21:24:06.766Z,-0.70
2022-12-17T21:26:36.591Z,-0.74
2022-12-17T21:29:05.697Z,-0.77
2022-12-17T21:31:41.124Z,-0.78
2022-12-17T21:34:11.865Z,-0.81
2022-12-17T21:36:38.900Z,-0.83
2022-12-17T21:39:09.179Z,-0.87
2022-12-17T21:41:38.397Z,-0.88
2022-12-17T21:44:08.239Z,-0.90
2022-12-17T21:46:35.506Z,-0.91
2022-12-17T21:49:04.582Z,-0.91
2022-12-17T21:51:34.507Z,-0.93
2022-12-17T21:54:08.643Z,-0.95
2022-12-17T21:56:37.045Z,-0.97
2022-12-17T21:59:03.942Z,-0.98
2022-12-17T22:01:34.222Z,-0.98
2022-12-17T22:04:03.634Z,-1.02
2022-12-17T22:06:36.869Z,-1.00
2022-12-17T22:09:32.310Z,-1.03
2022-12-17T22:12:21.337Z,-1.05
2022-12-17T22:14:47.976Z,-1.07
2022-12-17T22:17:15.147Z,-1.09
2022-12-17T22:19:41.890Z,-1.11
2022-12-17T22:22:08.506Z,-1.15
2022-12-17T22:24:36.700Z,-1.15
2022-12-17T22:27:04.128Z,-1.18
2022-12-17T22:29:51.870Z,-1.26
2022-12-17T22:32:37.112Z,-1.29
2022-12-17T22:36:58.069Z,-1.30
2022-12-17T22:40:32.327Z,-1.31
2022-12-17T22:44:32.174Z,-1.37
2022-12-17T22:44:44.171Z,-1.40
2022-12-17T22:46:19.428Z,-1.43
2022-12-17T22:48:46.934Z,-1.45
2022-12-17T22:51:17.447Z,-1.51
2022-12-17T22:53:53.343Z,-1.50
2022-12-17T22:56:43.130Z,-1.54
2022-12-17T22:59:07.756Z,-1.58
2022-12-17T23:01:35.055Z,-1.59
2022-12-17T23:04:03.158Z,-1.62
2022-12-17T23:06:29.791Z,-1.68
2022-12-17T23:08:56.715Z,-1.73
2022-12-17T23:11:25.907Z,-1.75
2022-12-17T23:13:53.638Z,-1.79
2022-12-17T23:16:20.843Z,-1.81
2022-12-17T23:18:48.571Z,-1.84
2022-12-17T23:21:18.611Z,-1.85
2022-12-17T23:23:45.507Z,-1.85
2022-12-17T23:26:18.218Z,-1.86
2022-12-17T23:28:48.493Z,-1.88
2022-12-17T23:31:17.939Z,-1.92
2022-12-17T23:33:45.642Z,-1.97
2022-12-17T23:36:18.577Z,-1.99
2022-12-17T23:38:46.895Z,-2.01
2022-12-17T23:41:19.763Z,-2.03
2022-12-17T23:43:47.567Z,-2.08
2022-12-17T23:46:14.682Z,-2.09
2022-12-17T23:48:45.619Z,-2.11
2022-12-17T23:51:14.639Z,-2.15
2022-12-17T23:53:42.646Z,-2.16
2022-12-17T23:56:11.909Z,-2.20
2022-12-17T23:58:39.850Z,-2.25
